Time;durP1;ratioP1;P1;durP2;ratioP2;P2;SDS_P1;SDS_P2;PMS_P1;PMS_P2;Temp;Humidity;BMP_temperature;BMP_pressure;BME280_temperature;BME280_humidity;BME280_pressure;Samples;Min_cycle;Max_cycle;Signal;HPM_P1;HPM_P2
2023/02/10 16:11:40;;;;;;;57.83;24.40;;;6.00;99.90;;;;;;5083267;28;20554;-66
2023/02/10 16:14:05;;;;;;;58.35;25.30;;;6.00;99.90;;;;;;5083202;28;20036;-64
2023/02/10 16:16:31;;;;;;;57.00;25.40;;;6.10;99.90;;;;;;5077244;28;20015;-66
2023/02/10 16:18:57;;;;;;;60.40;25.83;;;6.20;99.90;;;;;;5067231;28;20108;-64
2023/02/10 16:21:23;;;;;;;50.90;23.48;;;6.30;99.90;;;;;;5083067;28;20607;-64
2023/02/10 16:23:48;;;;;;;52.85;23.25;;;6.30;99.90;;;;;;5068839;28;20035;-67
2023/02/10 16:26:23;;;;;;;49.85;25.05;;;6.40;99.90;;;;;;5066933;28;20469;-65
2023/02/10 16:28:50;;;;;;;46.72;23.60;;;6.40;99.90;;;;;;5069947;28;20079;-66
2023/02/10 16:31:18;;;;;;;48.80;22.92;;;6.50;99.90;;;;;;5068593;28;20106;-66
2023/02/10 16:33:44;;;;;;;47.58;22.55;;;6.50;99.90;;;;;;5068811;28;20021;-67
2023/02/10 16:36:14;;;;;;;41.53;21.52;;;6.50;99.90;;;;;;5067081;28;20061;-67
2023/02/10 16:38:40;;;;;;;39.47;19.45;;;6.50;99.90;;;;;;5067361;28;20029;-67
2023/02/10 16:41:06;;;;;;;48.22;23.00;;;6.50;99.90;;;;;;5068400;28;20025;-67
2023/02/10 16:43:32;;;;;;;44.88;22.17;;;6.50;99.90;;;;;;5067489;28;20036;-66
2023/02/10 16:45:57;;;;;;;47.88;22.77;;;6.50;99.90;;;;;;5068564;28;20074;-67
2023/02/10 16:48:23;;;;;;;49.47;24.13;;;6.50;99.90;;;;;;5083936;28;20385;-63
2023/02/10 16:50:48;;;;;;;47.90;23.13;;;6.50;99.90;;;;;;5087784;28;20032;-66
2023/02/10 16:53:14;;;;;;;54.97;24.25;;;6.50;99.90;;;;;;5086279;28;20070;-66
2023/02/10 16:55:41;;;;;;;51.47;23.75;;;6.50;99.90;;;;;;5087775;28;20024;-68
2023/02/10 16:58:12;;;;;;;54.53;23.65;;;6.50;99.90;;;;;;5088076;28;20016;-66
2023/02/10 17:00:38;;;;;;;52.50;25.20;;;6.50;99.90;;;;;;5103475;28;20080;-64
2023/02/10 17:03:03;;;;;;;52.42;24.90;;;6.50;99.90;;;;;;5102934;28;20477;-67
2023/02/10 17:05:31;;;;;;;53.83;25.83;;;6.50;99.90;;;;;;5087838;28;20086;-64
2023/02/10 17:07:57;;;;;;;48.78;24.23;;;6.50;99.90;;;;;;5079046;28;20048;-68
2023/02/10 17:10:25;;;;;;;49.33;25.65;;;6.50;99.90;;;;;;5066306;28;20516;-66
2023/02/10 17:12:51;;;;;;;58.40;27.83;;;6.50;99.90;;;;;;5084858;28;20111;-62
2023/02/10 17:15:17;;;;;;;51.53;25.98;;;6.40;99.90;;;;;;5086688;28;20064;-67
2023/02/10 17:17:43;;;;;;;59.92;26.40;;;6.40;99.90;;;;;;5087320;28;20109;-68
2023/02/10 17:20:25;;;;;;;57.10;26.40;;;6.40;99.90;;;;;;5087794;28;20032;-67
2023/02/10 17:22:54;;;;;;;52.95;25.48;;;6.40;99.90;;;;;;5072873;28;20338;-67
2023/02/10 17:25:21;;;;;;;55.53;25.45;;;6.40;99.90;;;;;;5033776;28;20452;-67
2023/02/10 17:27:47;;;;;;;51.58;26.80;;;6.40;99.90;;;;;;5034305;28;20093;-67
2023/02/10 17:30:16;;;;;;;50.80;25.38;;;6.40;99.90;;;;;;5052560;28;20505;-66
2023/02/10 17:32:44;;;;;;;51.60;25.58;;;6.40;99.90;;;;;;5053285;28;20024;-67
2023/02/10 17:35:12;;;;;;;55.53;25.33;;;6.40;99.90;;;;;;5053950;28;20032;-67
2023/02/10 17:37:39;;;;;;;50.38;25.30;;;6.40;99.90;;;;;;5053902;28;20024;-65
2023/02/10 17:42:44;;;;;;;53.65;25.88;;;6.40;99.90;;;;;;5059096;28;20032;-64
2023/02/10 17:45:15;;;;;;;50.03;25.35;;;6.40;99.90;;;;;;5052054;28;20020;-64
2023/02/10 17:47:41;;;;;;;51.90;25.13;;;6.40;99.90;;;;;;5048644;28;20080;-63
2023/02/10 17:50:07;;;;;;;49.28;24.67;;;6.40;99.90;;;;;;5054758;28;20052;-63
2023/02/10 17:52:33;;;;;;;49.25;24.23;;;6.40;99.90;;;;;;5072764;28;20029;-66
2023/02/10 17:54:58;;;;;;;50.55;25.10;;;6.40;99.90;;;;;;5073782;28;20015;-63
2023/02/10 17:57:24;;;;;;;52.80;25.65;;;6.40;99.90;;;;;;5071599;28;20096;-68
2023/02/10 17:59:50;;;;;;;50.67;25.38;;;6.50;99.90;;;;;;5071768;28;20043;-65
2023/02/10 18:02:16;;;;;;;49.42;25.00;;;6.40;99.90;;;;;;5073675;28;20081;-64
2023/02/10 18:04:46;;;;;;;51.55;24.00;;;6.50;99.90;;;;;;5073346;28;20465;-66
2023/02/10 18:07:13;;;;;;;56.28;24.23;;;6.50;99.90;;;;;;5088054;28;20043;-66
2023/02/10 18:09:38;;;;;;;50.28;23.50;;;6.50;99.90;;;;;;5088202;28;20044;-68
2023/02/10 18:12:07;;;;;;;52.70;25.38;;;6.40;99.90;;;;;;5071401;28;20025;-66
2023/02/10 18:14:33;;;;;;;49.67;24.40;;;6.50;99.90;;;;;;5072327;28;20019;-68
2023/02/10 18:17:00;;;;;;;50.25;24.98;;;6.40;99.90;;;;;;5073154;28;20362;-67
2023/02/10 18:19:26;;;;;;;53.13;24.90;;;6.40;99.90;;;;;;5088738;28;20009;-66
2023/02/10 18:21:52;;;;;;;51.92;24.40;;;6.40;99.90;;;;;;5072459;28;20021;-66
2023/02/10 18:24:17;;;;;;;50.28;23.45;;;6.40;99.90;;;;;;5072960;28;20035;-66
2023/02/10 18:26:43;;;;;;;52.05;24.42;;;6.40;99.90;;;;;;5071309;28;20520;-66
2023/02/10 18:29:09;;;;;;;56.83;26.27;;;6.40;99.90;;;;;;5070722;28;20017;-65
2023/02/10 18:31:35;;;;;;;52.65;25.00;;;6.30;99.90;;;;;;5070560;28;20028;-65
2023/02/10 18:34:01;;;;;;;55.67;26.15;;;6.30;99.90;;;;;;5051104;28;20359;-64
2023/02/10 18:36:27;;;;;;;50.42;24.30;;;6.30;99.90;;;;;;5053040;28;20536;-65
2023/02/10 18:38:52;;;;;;;49.40;25.02;;;6.40;99.90;;;;;;5052064;28;20032;-67
2023/02/10 18:41:18;;;;;;;57.35;26.30;;;6.40;99.90;;;;;;5053638;28;20021;-65
2023/02/10 18:43:47;;;;;;;59.67;24.52;;;6.40;99.90;;;;;;5052062;28;20029;-65
2023/02/10 18:46:13;;;;;;;54.10;24.35;;;6.40;99.90;;;;;;5053054;28;20021;-65
2023/02/10 18:48:39;;;;;;;53.08;25.33;;;6.40;99.90;;;;;;5050236;28;20504;-66
2023/02/10 18:51:06;;;;;;;55.85;24.25;;;6.50;99.90;;;;;;5067899;28;20033;-65
2023/02/10 18:53:37;;;;;;;46.33;23.00;;;6.50;99.90;;;;;;5072195;28;20048;-65
2023/02/10 18:56:09;;;;;;;53.63;25.05;;;6.40;99.90;;;;;;5072300;28;20031;-65
2023/02/10 18:58:36;;;;;;;50.95;22.77;;;6.50;99.90;;;;;;5072580;28;20017;-66
2023/02/10 19:01:12;;;;;;;55.22;24.50;;;6.50;99.90;;;;;;5072726;28;20021;-67
2023/02/10 19:03:38;;;;;;;51.90;22.60;;;6.50;99.90;;;;;;5071434;28;20017;-65
2023/02/10 19:06:04;;;;;;;50.88;23.20;;;6.50;99.90;;;;;;5070124;28;20043;-64
2023/02/10 19:08:30;;;;;;;60.95;26.50;;;6.50;99.90;;;;;;5081995;28;20021;-65
2023/02/10 19:11:02;;;;;;;54.97;24.65;;;6.50;99.90;;;;;;5051474;28;20488;-64
2023/02/10 19:13:27;;;;;;;57.75;25.67;;;6.50;99.90;;;;;;5051075;28;20025;-65
2023/02/10 19:15:53;;;;;;;58.95;25.52;;;6.50;99.90;;;;;;5057846;28;20035;-64
2023/02/10 19:18:19;;;;;;;53.97;24.02;;;6.50;99.90;;;;;;5072569;28;20017;-65
2023/02/10 19:20:45;;;;;;;56.05;24.70;;;6.60;99.90;;;;;;5070125;28;20079;-65
2023/02/10 19:23:10;;;;;;;61.88;26.05;;;6.60;99.90;;;;;;5072122;28;20090;-66
2023/02/10 19:25:36;;;;;;;58.35;26.52;;;6.60;99.90;;;;;;5071499;28;20070;-64
2023/02/10 19:28:02;;;;;;;62.75;26.45;;;6.60;99.90;;;;;;5072398;28;20025;-65
2023/02/10 19:30:27;;;;;;;61.55;25.38;;;6.60;99.90;;;;;;5087087;28;20437;-65
2023/02/10 19:32:53;;;;;;;58.85;25.65;;;6.60;99.90;;;;;;5069783;28;20029;-65
2023/02/10 19:35:19;;;;;;;67.13;27.60;;;6.60;99.90;;;;;;5052291;28;20017;-65
2023/02/10 19:37:44;;;;;;;62.75;26.88;;;6.60;99.90;;;;;;5050985;28;20067;-64
2023/02/10 19:40:13;;;;;;;61.47;26.00;;;6.60;99.90;;;;;;5053957;28;20389;-66
2023/02/10 19:42:38;;;;;;;61.95;27.17;;;6.60;99.90;;;;;;5051829;28;20029;-63
2023/02/10 19:45:06;;;;;;;68.68;28.70;;;6.60;99.90;;;;;;5050989;28;20024;-65
2023/02/10 19:47:31;;;;;;;73.50;27.92;;;6.60;99.90;;;;;;5051371;28;20024;-65
2023/02/10 19:49:57;;;;;;;63.70;26.95;;;6.60;99.90;;;;;;5051668;28;20028;-64
2023/02/10 19:52:22;;;;;;;63.85;26.02;;;6.60;99.90;;;;;;5052173;28;20032;-64
2023/02/10 19:54:48;;;;;;;61.33;26.13;;;6.60;99.90;;;;;;5051463;28;20028;-64
2023/02/10 19:57:14;;;;;;;63.17;26.77;;;6.60;99.90;;;;;;5051581;28;20467;-64
2023/02/10 19:59:39;;;;;;;58.55;24.85;;;6.60;99.90;;;;;;5050648;28;20056;-64
2023/02/10 20:02:05;;;;;;;64.43;26.05;;;6.60;99.90;;;;;;5050471;28;20033;-64
2023/02/10 20:04:31;;;;;;;65.18;26.85;;;6.60;99.90;;;;;;5049873;28;20025;-65
2023/02/10 20:06:56;;;;;;;62.70;26.35;;;6.60;99.90;;;;;;5050112;28;20017;-64
2023/02/10 20:09:22;;;;;;;62.15;27.23;;;6.60;99.90;;;;;;5050102;28;20445;-65
2023/02/10 20:11:48;;;;;;;63.70;26.25;;;6.60;99.90;;;;;;5050081;28;20032;-65
2023/02/10 20:14:13;;;;;;;61.13;26.80;;;6.60;99.90;;;;;;5056694;28;20044;-64
2023/02/10 20:16:43;;;;;;;64.50;28.02;;;6.60;99.90;;;;;;5071455;28;20457;-63
2023/02/10 20:19:13;;;;;;;65.47;24.15;;;6.60;99.90;;;;;;5071142;28;20044;-65
2023/02/10 20:21:40;;;;;;;57.42;26.20;;;6.60;99.90;;;;;;5086183;28;20070;-65
2023/02/10 20:24:07;;;;;;;59.83;26.02;;;6.60;99.90;;;;;;5069500;28;20013;-64
2023/02/10 20:26:33;;;;;;;54.60;24.17;;;6.60;99.90;;;;;;5070930;28;20021;-64
2023/02/10 20:29:01;;;;;;;56.90;26.45;;;6.60;99.90;;;;;;5071735;28;20021;-66
2023/02/10 20:31:26;;;;;;;56.92;26.23;;;6.60;99.90;;;;;;5071673;28;20078;-64
2023/02/10 20:33:52;;;;;;;63.65;27.92;;;6.60;99.90;;;;;;5070446;28;20928;-63
2023/02/10 20:36:18;;;;;;;62.13;27.02;;;6.60;99.90;;;;;;5086749;28;20047;-64
2023/02/10 20:38:45;;;;;;;68.03;29.38;;;6.60;99.90;;;;;;5061307;28;20144;-64
2023/02/10 20:41:13;;;;;;;63.95;27.75;;;6.60;99.90;;;;;;5049641;28;20052;-65
2023/02/10 20:43:39;;;;;;;50.65;24.40;;;6.60;99.90;;;;;;5051001;28;20040;-64
2023/02/10 20:46:07;;;;;;;68.07;29.20;;;6.60;99.90;;;;;;5050742;28;20358;-65
2023/02/10 20:48:32;;;;;;;64.97;27.27;;;6.60;99.90;;;;;;5050208;28;20047;-66
2023/02/10 20:51:00;;;;;;;61.45;28.50;;;6.60;99.90;;;;;;5051747;28;20409;-67
2023/02/10 20:53:26;;;;;;;65.38;29.48;;;6.60;99.90;;;;;;5049289;28;20017;-64
2023/02/10 20:55:51;;;;;;;53.92;26.00;;;6.60;99.90;;;;;;5050270;28;20032;-64
2023/02/10 20:58:17;;;;;;;66.57;28.10;;;6.60;99.90;;;;;;5055316;28;20024;-64
2023/02/10 21:00:43;;;;;;;58.47;26.50;;;6.60;99.90;;;;;;5065361;28;20036;-64
2023/02/10 21:03:11;;;;;;;63.20;26.20;;;6.60;99.90;;;;;;5052598;28;20029;-65
2023/02/10 21:05:37;;;;;;;61.30;25.77;;;6.60;99.90;;;;;;5054711;28;20547;-65
2023/02/10 21:08:03;;;;;;;66.57;28.60;;;6.70;99.90;;;;;;5064578;28;20474;-66
2023/02/10 21:10:28;;;;;;;70.82;28.27;;;6.70;99.90;;;;;;5053821;28;20120;-65
2023/02/10 21:12:54;;;;;;;72.68;28.95;;;6.70;99.90;;;;;;5054220;28;20052;-65
2023/02/10 21:15:21;;;;;;;64.00;27.83;;;6.70;99.90;;;;;;5054354;28;20028;-64
2023/02/10 21:17:46;;;;;;;66.28;28.38;;;6.70;99.90;;;;;;5052774;28;20021;-64
2023/02/10 21:20:12;;;;;;;63.72;28.13;;;6.70;99.90;;;;;;5054535;28;20055;-64
